The Hangar Logo

METARs in Plain English
Latest METAR information for EGVN - BRIZE NORTON

EGVN 011350Z 30005KT 9999 -SHRA FEW024CB SCT050 15/12 Q1019 TEMPO 7000 SHRA

In plain english is....

This is a METAR report for EGVN - BRIZE NORTON .
The report was made 16 minutes ago, at 13:50 UTC.
The wind was blowing at a speed of 5 knots (5.8 miles per hour, 2.6 metres per second) from the West/Northwest (300°).
The visibility was greater than 6.2 miles (greater than 10 kilometres).
Weather was Light Shower(s) Rain .
There were a few cumulonimbus clouds at a height of 2400 feet (732 metres) and scattered clouds at a height of 5000 feet (1524 metres).
The temperature was 15°C (59°F), a dew point of 12°C (54°F) and a relative humidity of 82.2%.
The altimeter setting (airfield QNH) was 1,019 hPa (30.09 inHg).
Other remarks TEMPO 7000 SHRA.

UK Mainland

Ireland

Channel Islands

France

Other



Enter
Tel: 07092 887559 - Fax: 07092 183262

Terms of Use | Privacy Statement
Content copyright © 1999-2012 TheHangar.co.uk. All rights reserved.
Please send your questions, comments, or bug reports to the Webmaster.